Camp Pendleton, California
Current Conditions -  °F | °C
As of 4:54 PM on Thursday 18 Dec 2014 (Local Time) from KNFG Reporting Station
Scattered Clouds Scattered Clouds  
Wind Chill: 59°   Ceiling: Unl
Heat Index: 59°   Visibility: 7mi
Dew Point: 49°   Wind: 0mph
Humidity: 69%   Direction: NA
Pressure: 30.16"   Gusts: NA
Location:  33.3°N, 117.36°W
Report Text: KNFG 190054Z 00000KT 7SM SCT070 15/09 A3016 RMK AO2 SLP213 T01500094 $
Loading
Personal Weather Stations






























Interactive Weather Map New forecast layout! Learn more

10-Day Weather Forecast

Advertisements
Track Severe Weather on mobile